Atlantic Mine, MI

12:08 PM EDT on May 28, 2015 (GMT -0400)
Onnela | | Change Station
CLOSE
Current Station
Personal Weather Station
Location: Atlantic Mine, MI
Elevation: 940 ft
Nearby Weather Stations

Elev 940 ft 47.13 °N, 88.69 °W | Updated 2 minutes ago

Overcast
Overcast
53.6 °F
Feels Like 53.6 °F
N
4.0
Wind Variable Wind from SE
Gusts 11.0 mph

Today
High -- | Low -- °F
--% Chance of Precip.
Yesterday
High -- | Low -- °F
Precip. -- in
6:06 AM 9:38 PM
Waxing Gibbous, 77% visible
Pressure 30.17 in
Visibility 10.0 miles
Clouds Overcast 300 ft
Dew Point 49 °F
Humidity 84%
Rainfall 0.00 in
Snow Depth Not available.
UV 3 out of 12
Pollen 8.40 out of 12
Air Quality Not available.
Flu Activity Sporadic
METAR KCMX 281553Z AUTO 10012G19KT 10SM OVC003 09/07 A3016 RMK AO2 SLP217 T00890067

More Conditions Fewer Conditions

Pressure 30.17 in
Visibility 10.0 miles
Clouds Overcast 300 ft
Dew Point 49 °F
Humidity 84%
Rainfall 0.00 in
Snow Depth Not available.
UV 3 out of 12
Pollen 8.40 out of 12
Air Quality Not available.
Flu Activity Sporadic
METAR KCMX 281553Z AUTO 10012G19KT 10SM OVC003 09/07 A3016 RMK AO2 SLP217 T00890067

More Conditions Fewer Conditions

10-Day Weather Forecast

Almanac

Astronomy

May. 28, 2015 Rise Set
Actual Time
Civil Twilight
Nautical Twilight
Astronomical Twilight
Moon
Length of Visible Light
Length of Day
Tomorrow will be .
, % of the Moon is Illuminated

Today's Extremes

State Highs State Lows

Community

WunderPhotos

Upload Photos

1,825,002 photos uploaded!

WunderBlogs® & News

Nearby

Air Quality

  Air Quality AQ Index Pollutant
Not available.

Snow Depth

Station Depth Elevation

Earthquake Activity

City Distance Mag. Time & Date
Minimum magnitude displayed is 2.5.

Coastal Water Temperatures

Place Temperature

Stations

Nearby Weather Stations

Station Location Temp. Windchill Dew Point Humidity Wind Precip. Elev Updated Type